createdAt,value
2022-12-17T00:00:17.327Z,91.5
2022-12-17T00:01:16.874Z,91.4
2022-12-17T00:02:16.607Z,91.6
2022-12-17T00:03:17.790Z,91.9
2022-12-17T00:04:17.578Z,92.1
2022-12-17T00:05:17.170Z,92.2
2022-12-17T00:06:16.653Z,91.8
2022-12-17T00:07:17.164Z,91.9
2022-12-17T00:08:16.661Z,91.9
2022-12-17T00:09:17.180Z,91.7
2022-12-17T00:10:16.685Z,91.7
2022-12-17T00:11:17.171Z,92.0
2022-12-17T00:12:16.535Z,91.8
2022-12-17T00:13:17.037Z,91.6
2022-12-17T00:14:16.530Z,91.7
2022-12-17T00:15:17.235Z,91.9
2022-12-17T00:16:16.774Z,92.0
2022-12-17T00:17:17.270Z,92.1
2022-12-17T00:18:16.744Z,92.3
2022-12-17T00:19:17.239Z,92.3
2022-12-17T00:20:16.704Z,92.3
2022-12-17T00:21:17.194Z,92.3
2022-12-17T00:22:16.838Z,92.4
2022-12-17T00:23:17.317Z,92.5
2022-12-17T00:24:16.800Z,92.4
2022-12-17T00:25:17.302Z,91.9
2022-12-17T00:26:16.780Z,91.8
2022-12-17T00:27:17.274Z,91.8
2022-12-17T00:28:16.753Z,92.0
2022-12-17T00:29:17.267Z,91.8
2022-12-17T00:30:16.753Z,91.8
2022-12-17T00:31:17.419Z,91.9
2022-12-17T00:32:17.160Z,92.0
2022-12-17T00:33:16.665Z,92.0
2022-12-17T00:34:17.141Z,92.1
2022-12-17T00:35:16.627Z,92.1
2022-12-17T00:36:17.164Z,92.0
2022-12-17T00:37:16.662Z,91.8
2022-12-17T00:38:17.134Z,91.6
2022-12-17T00:39:16.645Z,91.6
2022-12-17T00:40:17.105Z,91.5
2022-12-17T00:41:16.584Z,91.5
2022-12-17T00:42:17.041Z,91.6
2022-12-17T00:43:16.497Z,91.7
2022-12-17T00:44:16.978Z,91.6
2022-12-17T00:45:16.462Z,91.7
2022-12-17T00:46:17.138Z,91.9
2022-12-17T00:47:16.708Z,91.9
2022-12-17T00:48:17.226Z,91.9
2022-12-17T00:49:16.704Z,91.9
2022-12-17T00:50:17.209Z,92.0
2022-12-17T00:51:16.697Z,91.8
2022-12-17T00:52:16.506Z,91.9
2022-12-17T00:53:17.029Z,91.9
2022-12-17T00:54:16.481Z,91.7
2022-12-17T00:55:16.950Z,91.6
2022-12-17T00:56:17.454Z,91.7
2022-12-17T00:57:16.978Z,91.7
2022-12-17T00:58:16.471Z,91.8
2022-12-17T00:59:16.957Z,91.9
2022-12-17T01:00:17.481Z,92.1
2022-12-17T01:01:17.282Z,92.5
2022-12-17T01:02:17.486Z,92.5
2022-12-17T01:03:17.181Z,92.8
2022-12-17T01:04:16.708Z,92.6
2022-12-17T01:05:17.205Z,91.9
2022-12-17T01:06:16.681Z,91.9
2022-12-17T01:07:17.150Z,92.0
2022-12-17T01:08:16.643Z,92.2
2022-12-17T01:09:17.124Z,92.3
2022-12-17T01:10:16.607Z,92.5
2022-12-17T01:11:17.104Z,92.5
2022-12-17T01:12:16.781Z,92.8
2022-12-17T01:13:17.261Z,92.9
2022-12-17T01:14:16.737Z,92.9
2022-12-17T01:15:17.259Z,93.0
2022-12-17T01:16:16.837Z,93.0
2022-12-17T01:17:17.375Z,93.0
2022-12-17T01:18:16.883Z,93.1
2022-12-17T01:19:17.440Z,93.1
2022-12-17T01:20:16.919Z,93.2
2022-12-17T01:21:17.409Z,93.4
2022-12-17T01:22:16.757Z,93.4
2022-12-17T01:23:17.228Z,93.3
2022-12-17T01:24:16.775Z,93.4
2022-12-17T01:25:17.275Z,93.4
2022-12-17T01:26:16.773Z,93.4
2022-12-17T01:27:17.264Z,93.5
2022-12-17T01:28:16.769Z,93.6
2022-12-17T01:29:17.213Z,93.6
2022-12-17T01:30:16.684Z,93.7
2022-12-17T01:31:17.267Z,93.7
2022-12-17T01:32:16.833Z,93.7
2022-12-17T01:33:17.297Z,93.8
2022-12-17T01:34:16.777Z,93.7
2022-12-17T01:35:17.239Z,93.7
2022-12-17T01:36:16.722Z,93.7
2022-12-17T01:37:17.198Z,93.5
2022-12-17T01:38:16.725Z,93.6
2022-12-17T01:39:17.232Z,93.5
2022-12-17T01:40:16.750Z,93.5
2022-12-17T01:41:17.257Z,93.6
2022-12-17T01:42:16.649Z,93.4
2022-12-17T01:43:17.114Z,93.4
2022-12-17T01:44:16.613Z,93.3
2022-12-17T01:45:17.092Z,93.3
2022-12-17T01:46:16.736Z,93.3
2022-12-17T01:47:17.242Z,93.2
2022-12-17T01:48:16.710Z,93.4
2022-12-17T01:49:17.189Z,93.3
2022-12-17T01:50:16.636Z,93.3
2022-12-17T01:51:17.113Z,93.3
2022-12-17T01:52:17.021Z,93.4
2022-12-17T01:53:16.559Z,93.4
2022-12-17T01:54:17.044Z,93.4
2022-12-17T01:55:16.520Z,93.3
2022-12-17T01:56:17.045Z,93.2
2022-12-17T01:57:16.553Z,93.2
2022-12-17T01:58:17.029Z,93.0
2022-12-17T01:59:16.532Z,93.0
2022-12-17T02:00:17.045Z,92.9
2022-12-17T02:01:16.713Z,92.8
2022-12-17T02:02:17.253Z,92.7
2022-12-17T02:03:16.983Z,92.6
2022-12-17T02:04:16.459Z,92.5
2022-12-17T02:05:16.913Z,92.4
2022-12-17T02:06:17.408Z,92.6
2022-12-17T02:07:17.063Z,92.6
2022-12-17T02:08:16.596Z,92.6
2022-12-17T02:09:17.107Z,92.6
2022-12-17T02:10:16.587Z,92.5
2022-12-17T02:11:17.059Z,92.5
2022-12-17T02:12:16.686Z,92.6
2022-12-17T02:13:17.180Z,92.6
2022-12-17T02:14:16.675Z,92.6
2022-12-17T02:15:17.162Z,92.8
2022-12-17T02:16:16.721Z,92.5
2022-12-17T02:17:17.218Z,92.5
2022-12-17T02:18:16.869Z,92.5
2022-12-17T02:19:17.365Z,92.3
2022-12-17T02:20:16.868Z,92.4
2022-12-17T02:21:17.376Z,92.4
2022-12-17T02:22:17.129Z,92.3
2022-12-17T02:23:16.620Z,92.5
2022-12-17T02:24:17.158Z,92.5
2022-12-17T02:25:16.643Z,92.5
2022-12-17T02:26:17.128Z,92.5
2022-12-17T02:27:16.609Z,92.5
2022-12-17T02:32:17.192Z,92.9
2022-12-17T02:33:16.762Z,93.0
2022-12-17T02:34:17.227Z,93.1
2022-12-17T02:35:16.706Z,93.1
2022-12-17T02:36:17.169Z,93.2
2022-12-17T02:37:16.635Z,93.5
2022-12-17T02:38:17.149Z,93.5
2022-12-17T02:39:16.629Z,93.4
2022-12-17T02:40:17.160Z,93.5
2022-12-17T02:41:16.631Z,93.8
2022-12-17T02:42:17.258Z,93.5
2022-12-17T02:43:16.812Z,93.4
2022-12-17T02:44:17.332Z,93.5
2022-12-17T02:45:16.861Z,93.7
2022-12-17T02:46:17.477Z,93.8
2022-12-17T02:47:16.981Z,93.7
2022-12-17T02:48:16.454Z,93.6
2022-12-17T02:49:16.923Z,93.7
2022-12-17T02:50:17.401Z,93.9
2022-12-17T02:51:16.884Z,94.0
2022-12-17T02:52:17.422Z,94.0
2022-12-17T02:53:16.909Z,94.0
2022-12-17T02:54:16.446Z,94.0
2022-12-17T02:55:16.954Z,94.2
2022-12-17T02:56:17.430Z,94.1
2022-12-17T02:57:16.950Z,93.6
2022-12-17T02:58:17.415Z,93.6
2022-12-17T02:59:16.931Z,93.6
2022-12-17T03:04:16.510Z,93.4
2022-12-17T03:05:44.366Z,93.2
2022-12-17T03:06:16.506Z,92.9
2022-12-17T03:07:16.997Z,92.8
2022-12-17T03:08:16.497Z,93.1
2022-12-17T03:09:16.991Z,93.3
2022-12-17T03:10:16.458Z,93.3
2022-12-17T03:11:16.948Z,93.3
2022-12-17T03:12:16.625Z,93.7
2022-12-17T03:13:17.272Z,93.9
2022-12-17T03:14:16.888Z,93.6
2022-12-17T03:15:16.526Z,93.7
2022-12-17T03:16:17.136Z,93.6
2022-12-17T03:17:16.669Z,93.7
2022-12-17T03:18:17.194Z,93.9
2022-12-17T03:19:16.700Z,94.1
2022-12-17T03:20:17.183Z,94.0
2022-12-17T03:21:16.688Z,93.7
2022-12-17T03:22:16.533Z,93.6
2022-12-17T03:23:17.046Z,93.7
2022-12-17T03:24:16.552Z,93.9
2022-12-17T03:25:17.053Z,93.5
2022-12-17T03:26:16.539Z,93.6
2022-12-17T03:27:17.023Z,93.8
2022-12-17T03:28:16.505Z,93.9
2022-12-17T03:29:17.004Z,94.2
2022-12-17T03:30:16.532Z,94.4
2022-12-17T03:31:17.150Z,94.7
2022-12-17T03:32:17.278Z,94.9
2022-12-17T03:33:16.762Z,94.9
2022-12-17T03:34:17.285Z,94.9
2022-12-17T03:35:16.768Z,95.0
2022-12-17T03:36:17.241Z,95.0
2022-12-17T03:37:16.718Z,95.0
2022-12-17T03:38:17.242Z,95.1
2022-12-17T03:39:16.809Z,95.1
2022-12-17T03:40:17.282Z,95.0
2022-12-17T03:41:16.749Z,94.9
2022-12-17T03:42:16.902Z,94.9
2022-12-17T03:43:17.429Z,95.0
2022-12-17T03:44:16.986Z,95.1
2022-12-17T03:45:16.498Z,95.1
2022-12-17T03:46:17.167Z,95.2
2022-12-17T03:47:16.706Z,95.2
2022-12-17T03:48:17.197Z,95.1
2022-12-17T03:49:16.657Z,95.1
2022-12-17T03:50:17.135Z,95.0
2022-12-17T03:51:16.605Z,95.1
2022-12-17T03:52:17.326Z,95.0
2022-12-17T03:53:16.800Z,95.1
2022-12-17T03:54:17.279Z,95.1
2022-12-17T03:55:16.775Z,95.1
2022-12-17T03:56:17.304Z,95.1
2022-12-17T03:57:16.828Z,95.2
2022-12-17T03:58:17.331Z,95.2
2022-12-17T03:59:16.820Z,95.1
2022-12-17T04:00:17.308Z,95.1
2022-12-17T04:01:17.031Z,95.1
2022-12-17T04:02:17.795Z,95.2
2022-12-17T04:03:17.507Z,95.2
2022-12-17T04:04:17.063Z,95.5
2022-12-17T04:05:20.700Z,95.5
2022-12-17T04:06:17.223Z,95.6
2022-12-17T04:07:16.712Z,95.3
2022-12-17T04:08:17.210Z,95.1
2022-12-17T04:09:16.674Z,95.0
2022-12-17T04:10:17.171Z,95.0
2022-12-17T04:11:16.699Z,95.1
2022-12-17T04:12:17.090Z,95.0
2022-12-17T04:13:16.568Z,95.1
2022-12-17T04:14:17.046Z,95.1
2022-12-17T04:15:16.569Z,94.9
2022-12-17T04:16:17.181Z,95.1
2022-12-17T04:17:16.705Z,95.2
2022-12-17T04:18:17.175Z,95.2
2022-12-17T04:19:16.668Z,95.0
2022-12-17T04:20:17.161Z,95.1
2022-12-17T04:21:16.650Z,95.0
2022-12-17T04:22:17.200Z,95.0
2022-12-17T04:23:16.655Z,94.6
2022-12-17T04:24:17.132Z,94.5
2022-12-17T04:25:16.609Z,94.5
2022-12-17T04:26:17.097Z,94.5
2022-12-17T04:27:16.590Z,94.5
2022-12-17T04:28:17.116Z,94.5
2022-12-17T04:29:16.593Z,94.5
2022-12-17T04:30:17.075Z,94.5
2022-12-17T04:31:16.763Z,94.6
2022-12-17T04:32:16.892Z,94.6
2022-12-17T04:33:17.393Z,94.7
2022-12-17T04:34:16.896Z,94.7
2022-12-17T04:35:17.406Z,94.6
2022-12-17T04:36:16.894Z,94.4
2022-12-17T04:37:17.420Z,94.3
2022-12-17T04:38:16.906Z,94.3
2022-12-17T04:39:17.452Z,94.3
2022-12-17T04:42:16.951Z,94.3
2022-12-17T04:43:17.432Z,94.5
2022-12-17T04:44:16.920Z,94.5
2022-12-17T04:45:17.391Z,94.4
2022-12-17T04:46:17.094Z,94.2
2022-12-17T04:47:16.612Z,94.2
2022-12-17T04:48:17.100Z,94.3
2022-12-17T04:49:16.572Z,94.3
2022-12-17T04:50:17.062Z,94.5
2022-12-17T04:51:16.552Z,94.3
2022-12-17T04:52:17.228Z,94.3
2022-12-17T04:53:16.746Z,94.2
2022-12-17T04:54:17.253Z,94.0
2022-12-17T04:55:16.748Z,94.0
2022-12-17T04:56:17.244Z,94.0
2022-12-17T04:57:16.711Z,94.0
2022-12-17T05:00:17.368Z,93.1
2022-12-17T05:01:17.120Z,93.1
2022-12-17T05:02:17.383Z,93.1
2022-12-17T05:03:17.025Z,93.2
2022-12-17T05:04:16.547Z,93.5
2022-12-17T05:05:17.071Z,93.7
2022-12-17T05:06:16.561Z,93.8
2022-12-17T05:07:17.032Z,93.9
2022-12-17T05:08:16.520Z,94.0
2022-12-17T05:09:16.980Z,94.2
2022-12-17T05:10:16.451Z,94.2
2022-12-17T05:11:16.922Z,94.5
2022-12-17T05:12:16.548Z,94.7
2022-12-17T05:13:17.024Z,94.5
2022-12-17T05:14:16.498Z,94.2
2022-12-17T05:15:16.983Z,94.0
2022-12-17T05:16:16.569Z,93.8
2022-12-17T05:17:17.122Z,93.8
2022-12-17T05:18:16.642Z,93.4
2022-12-17T05:19:17.102Z,93.4
2022-12-17T05:20:16.566Z,93.3
2022-12-17T05:21:17.049Z,93.3
2022-12-17T05:22:16.485Z,93.3
2022-12-17T05:23:17.003Z,93.5
2022-12-17T05:24:16.506Z,93.5
2022-12-17T05:25:17.017Z,93.6
2022-12-17T05:26:16.518Z,93.7
2022-12-17T05:27:17.009Z,93.7
2022-12-17T05:28:16.545Z,93.7
2022-12-17T05:29:17.046Z,93.8
2022-12-17T05:30:16.580Z,93.8
2022-12-17T05:31:17.190Z,93.8
2022-12-17T05:32:17.391Z,93.8
2022-12-17T05:33:16.908Z,93.7
2022-12-17T05:34:17.389Z,93.6
2022-12-17T05:35:16.899Z,93.5
2022-12-17T05:36:17.378Z,93.5
2022-12-17T05:37:16.862Z,93.5
2022-12-17T05:38:17.340Z,93.6
2022-12-17T05:39:16.861Z,93.7
2022-12-17T05:40:17.344Z,93.7
2022-12-17T05:41:16.836Z,93.6
2022-12-17T05:42:16.774Z,93.5
2022-12-17T05:43:17.277Z,93.3
2022-12-17T05:44:16.794Z,93.2
2022-12-17T05:45:17.281Z,93.1
2022-12-17T05:46:16.932Z,92.9
2022-12-17T05:47:16.463Z,92.6
2022-12-17T05:48:16.957Z,92.6
2022-12-17T05:49:17.429Z,92.5
2022-12-17T05:50:16.915Z,92.5
2022-12-17T05:51:17.410Z,92.6
2022-12-17T05:52:16.920Z,92.6
2022-12-17T05:53:17.422Z,92.6
2022-12-17T05:54:16.897Z,92.6
2022-12-17T05:55:17.397Z,92.6
2022-12-17T05:56:16.894Z,92.6
2022-12-17T05:57:17.375Z,92.7
2022-12-17T05:58:16.849Z,92.8
2022-12-17T05:59:17.358Z,92.9
2022-12-17T06:00:16.866Z,93.0
2022-12-17T06:01:17.446Z,93.0
2022-12-17T06:02:17.097Z,92.6
2022-12-17T06:03:16.793Z,92.3
2022-12-17T06:04:17.465Z,92.2
2022-12-17T06:05:16.978Z,92.3
2022-12-17T06:06:16.451Z,92.3
2022-12-17T06:07:16.914Z,92.3
2022-12-17T06:08:17.408Z,92.4
2022-12-17T06:09:16.904Z,92.4
2022-12-17T06:10:17.405Z,92.4
2022-12-17T06:11:16.883Z,92.5
2022-12-17T06:12:16.514Z,92.6
2022-12-17T06:13:17.000Z,92.7
2022-12-17T06:14:16.483Z,92.7
2022-12-17T06:15:16.970Z,92.7
2022-12-17T06:16:16.488Z,92.8
2022-12-17T06:17:16.973Z,92.7
2022-12-17T06:18:17.484Z,92.7
2022-12-17T06:19:17.067Z,92.7
2022-12-17T06:20:16.572Z,92.7
2022-12-17T06:21:17.027Z,92.7
2022-12-17T06:22:16.507Z,92.6
2022-12-17T06:23:17.006Z,92.2
2022-12-17T06:24:16.539Z,92.0
2022-12-17T06:25:17.016Z,91.7
2022-12-17T06:26:16.513Z,91.8
2022-12-17T06:27:17.021Z,91.7
2022-12-17T06:28:16.534Z,91.5
2022-12-17T06:29:17.008Z,91.5
2022-12-17T06:30:19.292Z,91.6
2022-12-17T06:31:16.936Z,91.7
2022-12-17T06:32:16.963Z,91.7
2022-12-17T06:33:17.467Z,91.9
2022-12-17T06:34:16.936Z,91.9
2022-12-17T06:35:17.421Z,91.5
2022-12-17T06:36:23.041Z,91.2
2022-12-17T06:37:16.594Z,91.1
2022-12-17T06:38:17.085Z,91.0
2022-12-17T06:39:16.582Z,90.9
2022-12-17T06:40:17.100Z,91.0
2022-12-17T06:41:16.614Z,91.0
2022-12-17T06:42:16.736Z,90.9
2022-12-17T06:43:17.216Z,90.8
2022-12-17T06:44:16.691Z,90.8
2022-12-17T06:45:17.170Z,90.8
2022-12-17T06:46:16.698Z,90.7
2022-12-17T06:47:17.199Z,90.6
2022-12-17T06:48:16.695Z,90.5
2022-12-17T06:49:17.175Z,90.4
2022-12-17T06:50:16.666Z,90.3
2022-12-17T06:51:17.172Z,90.2
2022-12-17T06:52:16.939Z,90.0
2022-12-17T06:53:17.413Z,90.0
2022-12-17T06:54:16.892Z,90.0
2022-12-17T06:55:17.370Z,90.2
2022-12-17T06:56:16.840Z,90.6
2022-12-17T06:57:17.330Z,90.9
2022-12-17T06:58:16.810Z,90.9
2022-12-17T06:59:17.338Z,90.9
2022-12-17T07:00:16.812Z,90.8
2022-12-17T07:01:17.467Z,90.8
2022-12-17T07:02:16.767Z,90.8
2022-12-17T07:03:17.442Z,90.9
2022-12-17T07:04:16.945Z,91.0
2022-12-17T07:05:17.442Z,91.0
2022-12-17T07:06:16.938Z,90.9
2022-12-17T07:07:17.444Z,90.9
2022-12-17T07:08:16.952Z,90.9
2022-12-17T07:09:17.412Z,91.0
2022-12-17T07:10:16.905Z,91.1
2022-12-17T07:11:17.378Z,91.2
2022-12-17T07:12:17.089Z,91.3
2022-12-17T07:13:16.626Z,91.3
2022-12-17T07:14:17.120Z,91.3
2022-12-17T07:15:16.632Z,91.4
2022-12-17T07:16:17.258Z,91.3
2022-12-17T07:17:16.747Z,91.4
2022-12-17T07:18:17.223Z,91.4
2022-12-17T07:19:16.679Z,91.3
2022-12-17T07:20:17.170Z,91.3
2022-12-17T07:21:16.633Z,91.2
2022-12-17T07:22:17.279Z,91.3
2022-12-17T07:23:16.772Z,91.3
2022-12-17T07:24:17.262Z,91.3
2022-12-17T07:25:16.747Z,91.3
2022-12-17T07:26:17.236Z,91.5
2022-12-17T07:27:16.691Z,91.5
2022-12-17T07:28:17.159Z,91.5
2022-12-17T07:29:16.613Z,91.1
2022-12-17T07:30:17.065Z,90.9
2022-12-17T07:31:16.640Z,90.6
2022-12-17T07:32:16.900Z,90.4
2022-12-17T07:33:17.410Z,90.2
2022-12-17T07:34:16.918Z,90.0
2022-12-17T07:35:17.400Z,89.9
2022-12-17T07:36:16.913Z,90.0
2022-12-17T07:37:20.899Z,90.0
2022-12-17T07:38:17.399Z,90.0
2022-12-17T07:39:16.892Z,89.9
2022-12-17T07:40:17.370Z,90.0
2022-12-17T07:41:16.819Z,90.0
2022-12-17T07:42:16.599Z,90.1
2022-12-17T07:43:17.113Z,90.0
2022-12-17T07:44:16.610Z,90.0
2022-12-17T07:45:17.097Z,89.9
2022-12-17T07:46:16.812Z,89.8
2022-12-17T07:47:17.361Z,89.8
2022-12-17T07:48:16.879Z,90.0
2022-12-17T07:49:25.446Z,89.9
2022-12-17T07:50:17.135Z,89.6
2022-12-17T07:51:16.611Z,89.3
2022-12-17T07:52:16.913Z,89.2
2022-12-17T07:53:17.439Z,88.8
2022-12-17T07:54:16.917Z,88.8
2022-12-17T07:55:18.665Z,88.3
2022-12-17T07:56:17.152Z,88.1
2022-12-17T07:57:16.698Z,87.9
2022-12-17T07:58:17.178Z,87.9
2022-12-17T07:59:16.655Z,87.8
2022-12-17T08:00:17.173Z,88.1
2022-12-17T08:01:16.884Z,88.1
2022-12-17T08:02:17.640Z,87.9
2022-12-17T08:03:17.290Z,87.6
2022-12-17T08:04:16.797Z,87.5
2022-12-17T08:05:17.260Z,87.4
2022-12-17T08:06:16.757Z,87.3
2022-12-17T08:07:17.248Z,91.3
2022-12-17T08:08:16.767Z,91.2
2022-12-17T08:09:17.247Z,91.2
2022-12-17T08:10:16.728Z,86.9
2022-12-17T08:11:17.209Z,86.9
2022-12-17T08:12:16.620Z,86.8
2022-12-17T08:13:17.112Z,87.0
2022-12-17T08:14:16.601Z,86.9
2022-12-17T08:15:17.071Z,87.5
2022-12-17T08:16:16.724Z,87.5
2022-12-17T08:17:17.487Z,87.3
2022-12-17T08:18:26.338Z,87.1
2022-12-17T08:19:17.150Z,87.0
2022-12-17T08:20:16.625Z,87.0
2022-12-17T08:21:17.109Z,86.9
2022-12-17T08:22:17.297Z,86.6
2022-12-17T08:23:16.775Z,86.8
2022-12-17T08:24:17.333Z,86.5
2022-12-17T08:25:16.870Z,86.5
2022-12-17T08:26:17.354Z,86.5
2022-12-17T08:27:16.848Z,86.4
2022-12-17T08:29:16.825Z,86.1
2022-12-17T08:30:17.300Z,85.8
2022-12-17T08:31:16.894Z,85.6
2022-12-17T08:32:16.438Z,85.8
2022-12-17T08:33:16.915Z,85.6
2022-12-17T08:34:17.415Z,85.5
2022-12-17T08:35:16.934Z,85.3
2022-12-17T08:36:17.420Z,85.7
2022-12-17T08:37:16.904Z,86.1
2022-12-17T08:38:17.396Z,86.4
2022-12-17T08:39:16.881Z,86.5
2022-12-17T08:40:17.366Z,86.1
2022-12-17T08:41:16.835Z,85.7
2022-12-17T08:42:17.264Z,85.4
2022-12-17T08:43:16.721Z,85.3
2022-12-17T08:44:17.212Z,85.2
2022-12-17T08:45:16.689Z,84.9
2022-12-17T08:46:17.398Z,84.7
2022-12-17T08:47:16.931Z,84.6
2022-12-17T08:48:17.421Z,84.5
2022-12-17T08:49:16.927Z,84.2
2022-12-17T08:50:17.481Z,84.2
2022-12-17T08:51:16.986Z,84.1
2022-12-17T08:52:16.483Z,84.0
2022-12-17T08:53:16.963Z,83.9
2022-12-17T08:54:17.443Z,83.8
2022-12-17T08:55:16.926Z,83.6
2022-12-17T08:56:17.430Z,83.9
2022-12-17T08:57:31.683Z,83.9
2022-12-17T08:58:17.322Z,84.1
2022-12-17T08:59:16.775Z,84.0
2022-12-17T09:00:17.248Z,83.8
2022-12-17T09:01:16.990Z,83.8
2022-12-17T09:02:17.472Z,83.9
2022-12-17T09:03:17.115Z,83.7
2022-12-17T09:04:16.627Z,84.0
2022-12-17T09:05:17.134Z,83.9
2022-12-17T09:06:16.633Z,83.5
2022-12-17T09:07:17.136Z,83.7
2022-12-17T09:08:16.630Z,83.6
2022-12-17T09:09:17.109Z,83.6
2022-12-17T09:10:16.591Z,83.3
2022-12-17T09:11:17.056Z,83.8
2022-12-17T09:12:16.698Z,83.5
2022-12-17T09:13:17.201Z,83.4
2022-12-17T09:14:16.721Z,83.2
2022-12-17T09:15:17.200Z,83.4
2022-12-17T09:16:16.875Z,84.1
2022-12-17T09:17:17.424Z,84.9
2022-12-17T09:18:16.906Z,84.7
2022-12-17T09:19:17.382Z,84.0
2022-12-17T09:20:16.862Z,83.6
2022-12-17T09:21:17.334Z,83.3
2022-12-17T09:22:16.520Z,83.2
2022-12-17T09:23:17.041Z,83.4
2022-12-17T09:24:16.497Z,83.7
2022-12-17T09:25:16.969Z,84.0
2022-12-17T09:26:17.469Z,84.1
2022-12-17T09:27:16.996Z,84.6
2022-12-17T09:28:16.469Z,84.8
2022-12-17T09:29:16.999Z,84.7
2022-12-17T09:30:16.489Z,84.2
2022-12-17T09:31:17.113Z,83.7
2022-12-17T09:32:17.338Z,83.6
2022-12-17T09:33:16.812Z,83.5
2022-12-17T09:34:17.306Z,83.2
2022-12-17T09:35:16.773Z,83.7
2022-12-17T09:36:17.258Z,83.9
2022-12-17T09:37:16.733Z,84.3
2022-12-17T09:38:17.235Z,84.2
2022-12-17T09:39:16.723Z,84.2
2022-12-17T09:40:17.237Z,84.1
2022-12-17T09:41:16.732Z,84.0
2022-12-17T09:42:17.380Z,83.7
2022-12-17T09:43:16.855Z,83.4
2022-12-17T09:44:17.356Z,83.2
2022-12-17T09:45:16.847Z,83.3
2022-12-17T09:46:17.413Z,83.3
2022-12-17T09:47:16.909Z,83.6
2022-12-17T09:48:17.387Z,83.5
2022-12-17T09:49:16.866Z,84.2
2022-12-17T09:50:17.414Z,85.2
2022-12-17T09:51:16.924Z,85.2
2022-12-17T09:52:17.200Z,85.4
2022-12-17T09:53:16.712Z,85.4
2022-12-17T09:54:17.206Z,85.4
2022-12-17T09:55:16.694Z,84.5
2022-12-17T09:56:17.159Z,84.1
2022-12-17T09:57:16.628Z,84.1
2022-12-17T09:58:17.126Z,83.9
2022-12-17T09:59:16.606Z,83.9
2022-12-17T10:00:17.074Z,84.1
2022-12-17T10:01:16.733Z,84.5
2022-12-17T10:02:17.710Z,84.5
2022-12-17T10:03:17.539Z,84.5
2022-12-17T10:04:17.079Z,84.3
2022-12-17T10:05:16.555Z,84.8
2022-12-17T10:06:22.841Z,84.8
2022-12-17T10:07:17.405Z,84.8
2022-12-17T10:08:16.875Z,84.4
2022-12-17T10:09:17.380Z,84.2
2022-12-17T10:10:16.864Z,83.9
2022-12-17T10:11:17.347Z,83.7
2022-12-17T10:12:16.673Z,83.6
2022-12-17T10:13:17.128Z,83.6
2022-12-17T10:14:16.608Z,84.1
2022-12-17T10:15:17.079Z,84.2
2022-12-17T10:16:16.848Z,84.4
2022-12-17T10:17:17.386Z,84.6
2022-12-17T10:18:16.887Z,84.3
2022-12-17T10:19:17.370Z,84.1
2022-12-17T10:20:16.966Z,84.0
2022-12-17T10:21:16.509Z,83.8
2022-12-17T10:22:16.900Z,83.8
2022-12-17T10:23:17.397Z,84.3
2022-12-17T10:24:18.891Z,84.0
2022-12-17T10:25:17.401Z,83.5
2022-12-17T10:26:16.887Z,83.4
2022-12-17T10:27:17.359Z,83.6
2022-12-17T10:28:16.822Z,83.3
2022-12-17T10:29:17.298Z,83.6
2022-12-17T10:30:16.885Z,83.8
2022-12-17T10:31:17.568Z,83.8
2022-12-17T10:32:16.831Z,84.0
2022-12-17T10:33:17.333Z,84.0
2022-12-17T10:34:16.810Z,84.0
2022-12-17T10:35:17.289Z,84.0
2022-12-17T10:36:16.785Z,84.0
2022-12-17T10:37:17.261Z,83.9
2022-12-17T10:38:16.730Z,84.2
2022-12-17T10:39:17.225Z,84.7
2022-12-17T10:40:16.880Z,84.4
2022-12-17T10:41:17.449Z,84.1
2022-12-17T10:42:16.630Z,84.0
2022-12-17T10:43:17.136Z,83.9
2022-12-17T10:44:16.627Z,83.9
2022-12-17T10:45:17.099Z,83.5
2022-12-17T10:46:16.808Z,83.4
2022-12-17T10:47:17.288Z,83.2
2022-12-17T10:48:16.782Z,83.3
2022-12-17T10:49:17.265Z,83.5
2022-12-17T10:50:16.745Z,83.6
2022-12-17T10:51:17.267Z,83.8
2022-12-17T10:52:16.752Z,83.6
2022-12-17T10:53:17.254Z,83.6
2022-12-17T10:54:16.787Z,83.9
2022-12-17T10:55:17.274Z,83.8
2022-12-17T10:56:16.734Z,83.5
2022-12-17T10:57:17.230Z,83.1
2022-12-17T10:58:16.690Z,83.1
2022-12-17T10:59:17.202Z,82.8
2022-12-17T11:00:16.679Z,82.7
2022-12-17T11:01:17.417Z,82.9
2022-12-17T11:02:17.103Z,83.3
2022-12-17T11:03:16.808Z,83.6
2022-12-17T11:04:17.345Z,83.7
2022-12-17T11:05:16.817Z,83.3
2022-12-17T11:06:17.347Z,83.3
2022-12-17T11:07:16.827Z,83.4
2022-12-17T11:08:17.332Z,83.3
2022-12-17T11:09:16.847Z,83.1
2022-12-17T11:10:17.330Z,83.1
2022-12-17T11:11:16.824Z,83.2
2022-12-17T11:12:16.840Z,83.3
2022-12-17T11:13:17.329Z,82.9
2022-12-17T11:14:16.828Z,82.9
2022-12-17T11:15:17.302Z,82.9
2022-12-17T11:16:17.018Z,82.9
2022-12-17T11:17:16.573Z,83.0
2022-12-17T11:18:17.087Z,83.1
2022-12-17T11:19:16.571Z,83.3
2022-12-17T11:20:17.073Z,83.0
2022-12-17T11:21:16.579Z,82.3
2022-12-17T11:22:16.948Z,81.5
2022-12-17T11:23:17.441Z,81.0
2022-12-17T11:24:23.061Z,80.8
2022-12-17T11:25:16.665Z,80.9
2022-12-17T11:26:17.131Z,80.3
2022-12-17T11:27:16.614Z,79.9
2022-12-17T11:28:17.117Z,79.2
2022-12-17T11:29:16.594Z,78.7
2022-12-17T11:30:17.102Z,78.6
2022-12-17T11:31:16.767Z,78.2
2022-12-17T11:32:17.267Z,77.9
2022-12-17T11:33:16.740Z,77.7
2022-12-17T11:34:17.253Z,77.4
2022-12-17T11:35:16.712Z,76.9
2022-12-17T11:36:17.189Z,76.3
2022-12-17T11:37:16.667Z,76.6
2022-12-17T11:38:17.163Z,76.6
2022-12-17T11:39:16.684Z,76.3
2022-12-17T11:40:17.221Z,76.0
2022-12-17T11:41:16.751Z,76.3
2022-12-17T11:42:17.086Z,75.6
2022-12-17T11:43:16.580Z,75.0
2022-12-17T11:44:17.078Z,75.4
2022-12-17T11:45:16.542Z,74.6
2022-12-17T11:46:17.117Z,74.0
2022-12-17T11:47:16.702Z,74.0
2022-12-17T11:48:17.203Z,73.7
2022-12-17T11:49:16.682Z,73.0
2022-12-17T11:50:17.161Z,72.9
2022-12-17T11:51:16.644Z,73.2
2022-12-17T11:52:17.218Z,73.2
2022-12-17T11:53:16.710Z,73.2
2022-12-17T11:54:17.214Z,73.0
2022-12-17T11:55:16.705Z,72.3
2022-12-17T11:56:17.222Z,71.6
2022-12-17T11:57:16.707Z,73.3
2022-12-17T11:58:17.204Z,75.3
2022-12-17T11:59:16.700Z,76.8
2022-12-17T12:00:17.166Z,77.7
2022-12-17T12:01:16.736Z,78.2
2022-12-17T12:02:17.185Z,78.2
2022-12-17T12:03:16.956Z,77.7
2022-12-17T12:04:16.747Z,77.2
2022-12-17T12:05:17.277Z,77.1
2022-12-17T12:06:16.765Z,77.4
2022-12-17T12:07:17.269Z,77.6
2022-12-17T12:08:16.764Z,77.3
2022-12-17T12:09:17.287Z,77.4
2022-12-17T12:10:16.822Z,77.7
2022-12-17T12:11:17.302Z,78.8
2022-12-17T12:12:16.754Z,79.5
2022-12-17T12:13:17.212Z,79.8
2022-12-17T12:14:16.712Z,79.8
2022-12-17T12:15:17.225Z,80.2
2022-12-17T12:16:16.864Z,80.1
2022-12-17T12:17:17.366Z,80.0
2022-12-17T12:18:16.868Z,79.8
2022-12-17T12:19:17.357Z,79.6
2022-12-17T12:20:16.853Z,79.5
2022-12-17T12:21:17.356Z,79.7
2022-12-17T12:22:16.529Z,80.0
2022-12-17T12:23:17.016Z,80.2
2022-12-17T12:24:16.505Z,80.1
2022-12-17T12:25:16.972Z,80.3
2022-12-17T12:26:17.448Z,80.5
2022-12-17T12:27:16.927Z,80.7
2022-12-17T12:28:17.429Z,80.6
2022-12-17T12:29:16.915Z,80.5
2022-12-17T12:30:17.467Z,80.3
2022-12-17T12:31:17.066Z,80.3
2022-12-17T12:32:16.859Z,80.3
2022-12-17T12:33:17.361Z,80.6
2022-12-17T12:34:16.848Z,80.8
2022-12-17T12:35:17.352Z,80.9
2022-12-17T12:36:16.806Z,81.0
2022-12-17T12:37:17.325Z,81.0
2022-12-17T12:38:16.803Z,81.1
2022-12-17T12:39:17.309Z,81.0
2022-12-17T12:40:16.825Z,81.1
2022-12-17T12:41:17.315Z,81.1
2022-12-17T12:42:16.944Z,81.3
2022-12-17T12:43:16.614Z,81.2
2022-12-17T12:44:17.105Z,81.3
2022-12-17T12:45:16.599Z,81.6
2022-12-17T12:46:17.324Z,81.8
2022-12-17T12:47:16.905Z,82.2
2022-12-17T12:48:17.396Z,82.1
2022-12-17T12:49:16.869Z,81.8
2022-12-17T12:50:17.429Z,81.9
2022-12-17T12:51:16.914Z,81.9
2022-12-17T12:52:17.224Z,82.1
2022-12-17T12:53:16.839Z,82.1
2022-12-17T12:54:17.306Z,82.0
2022-12-17T12:55:16.774Z,82.1
2022-12-17T12:56:17.258Z,82.1
2022-12-17T12:57:16.787Z,82.4
2022-12-17T12:58:17.265Z,82.9
2022-12-17T12:59:16.786Z,83.1
2022-12-17T13:00:17.245Z,83.1
2022-12-17T13:01:17.084Z,83.2
2022-12-17T13:02:17.477Z,83.4
2022-12-17T13:03:17.292Z,83.4
2022-12-17T13:04:16.798Z,82.7
2022-12-17T13:05:17.309Z,82.8
2022-12-17T13:06:16.800Z,83.1
2022-12-17T13:07:17.290Z,83.1
2022-12-17T13:08:16.858Z,83.6
2022-12-17T13:09:17.364Z,83.6
2022-12-17T13:10:16.901Z,83.5
2022-12-17T13:11:17.400Z,83.5
2022-12-17T13:12:17.090Z,83.5
2022-12-17T13:13:16.608Z,83.8
2022-12-17T13:14:17.098Z,83.8
2022-12-17T13:15:16.609Z,83.5
2022-12-17T13:16:17.224Z,83.1
2022-12-17T13:17:16.729Z,83.1
2022-12-17T13:18:17.258Z,83.2
2022-12-17T13:19:16.757Z,83.6
2022-12-17T13:20:17.256Z,83.6
2022-12-17T13:21:16.774Z,84.1
2022-12-17T13:22:24.540Z,84.1
2022-12-17T13:23:17.178Z,84.0
2022-12-17T13:24:16.640Z,84.0
2022-12-17T13:25:17.125Z,83.8
2022-12-17T13:26:16.609Z,84.1
2022-12-17T13:27:17.125Z,84.3
2022-12-17T13:28:21.665Z,84.4
2022-12-17T13:29:17.217Z,84.2
2022-12-17T13:30:16.745Z,84.3
2022-12-17T13:31:17.437Z,84.5